createdAt,value
2018-07-19T00:01:10.152Z,5.07
2018-07-19T00:03:38.569Z,5.07
2018-07-19T00:06:07.005Z,5.20
2018-07-19T00:08:35.406Z,5.53
2018-07-19T00:11:04.088Z,4.80
2018-07-19T00:13:32.492Z,4.00
2018-07-19T00:16:01.029Z,4.40
2018-07-19T00:18:29.529Z,4.20
2018-07-19T00:20:58.442Z,5.07
2018-07-19T00:23:27.468Z,4.60
2018-07-19T00:25:57.052Z,4.60
2018-07-19T00:28:25.724Z,5.27
2018-07-19T00:30:54.544Z,5.43
2018-07-19T00:33:23.312Z,5.60
2018-07-19T00:35:52.433Z,5.50
2018-07-19T00:38:20.939Z,6.07
2018-07-19T00:40:49.411Z,6.03
2018-07-19T00:43:17.983Z,5.30
2018-07-19T00:45:46.374Z,5.90
2018-07-19T00:48:14.796Z,5.70
2018-07-19T00:50:43.205Z,5.90
2018-07-19T00:53:11.588Z,6.17
2018-07-19T00:55:40.789Z,5.87
2018-07-19T00:58:09.192Z,6.13
2018-07-19T01:00:37.617Z,5.67
2018-07-19T01:03:06.292Z,5.90
2018-07-19T01:05:34.684Z,6.37
2018-07-19T01:08:03.128Z,5.90
2018-07-19T01:10:31.784Z,6.40
2018-07-19T01:13:00.198Z,6.20
2018-07-19T01:15:28.606Z,6.27
2018-07-19T01:17:57.037Z,5.67
2018-07-19T01:20:25.433Z,6.27
2018-07-19T01:22:53.839Z,7.07
2018-07-19T01:25:22.249Z,6.07
2018-07-19T01:27:50.672Z,6.07
2018-07-19T01:30:19.092Z,5.97
2018-07-19T01:32:47.500Z,6.23
2018-07-19T01:35:15.584Z,6.40
2018-07-19T01:37:43.979Z,7.60
2018-07-19T01:40:12.389Z,7.07
2018-07-19T01:42:43.928Z,7.50
2018-07-19T01:45:13.048Z,7.50
2018-07-19T01:47:41.728Z,8.43
2018-07-19T01:50:11.105Z,8.47
2018-07-19T01:52:39.524Z,6.73
2018-07-19T01:55:08.572Z,7.63
2018-07-19T01:57:36.976Z,8.33
2018-07-19T02:00:05.997Z,8.53
2018-07-19T02:02:34.384Z,8.47
2018-07-19T02:05:02.886Z,8.50
2018-07-19T02:07:31.264Z,7.80
2018-07-19T02:09:59.652Z,8.97
2018-07-19T02:12:28.254Z,8.23
2018-07-19T02:14:56.626Z,8.70
2018-07-19T02:17:25.024Z,7.33
2018-07-19T02:19:53.415Z,7.50
2018-07-19T02:22:21.805Z,7.80
2018-07-19T02:24:50.200Z,8.40
2018-07-19T02:27:18.596Z,8.93
2018-07-19T02:29:47.016Z,10.13
2018-07-19T02:32:15.724Z,9.80
2018-07-19T02:34:44.116Z,10.23
2018-07-19T02:37:12.512Z,9.67
2018-07-19T02:39:40.960Z,9.30
2018-07-19T02:42:09.656Z,10.23
2018-07-19T02:44:38.109Z,10.23
2018-07-19T02:47:06.583Z,10.30
2018-07-19T02:49:35.048Z,9.30
2018-07-19T02:52:03.539Z,9.20
2018-07-19T02:54:31.980Z,9.03
2018-07-19T02:57:01.200Z,9.50
2018-07-19T02:59:29.613Z,9.87
2018-07-19T03:01:58.068Z,9.00
2018-07-19T03:04:26.472Z,8.50
2018-07-19T03:06:54.893Z,9.40
2018-07-19T03:09:23.316Z,9.30
2018-07-19T03:11:51.695Z,9.43
2018-07-19T03:14:20.076Z,8.80
2018-07-19T03:16:48.476Z,9.37
2018-07-19T03:19:16.616Z,8.70
2018-07-19T03:21:45.004Z,8.33
2018-07-19T03:24:13.397Z,8.33
2018-07-19T03:26:41.544Z,8.67
2018-07-19T03:29:10.065Z,8.50
2018-07-19T03:31:38.467Z,8.90
2018-07-19T03:34:06.996Z,8.97
2018-07-19T03:36:35.401Z,8.40
2018-07-19T03:39:04.846Z,8.03
2018-07-19T03:41:33.236Z,8.70
2018-07-19T03:44:01.632Z,9.67
2018-07-19T03:46:30.060Z,9.40
2018-07-19T03:48:58.459Z,9.57
2018-07-19T03:51:26.864Z,8.97
2018-07-19T03:53:55.276Z,9.80
2018-07-19T03:56:23.669Z,10.00
2018-07-19T03:58:52.053Z,10.47
2018-07-19T04:01:20.460Z,9.53
2018-07-19T04:03:55.481Z,8.57
2018-07-19T04:06:23.896Z,10.43
2018-07-19T04:08:52.304Z,8.90
2018-07-19T04:11:20.700Z,11.07
2018-07-19T04:13:49.343Z,11.07
2018-07-19T04:16:18.196Z,11.43
2018-07-19T04:18:46.798Z,10.80
2018-07-19T04:21:15.590Z,10.20
2018-07-19T04:23:44.070Z,11.13
2018-07-19T04:26:12.644Z,11.40
2018-07-19T04:28:41.034Z,10.00
2018-07-19T04:31:09.436Z,11.60
2018-07-19T04:33:37.841Z,10.90
2018-07-19T04:36:06.264Z,11.03
2018-07-19T04:38:34.677Z,10.20
2018-07-19T04:41:03.072Z,10.90
2018-07-19T04:43:31.475Z,10.40
2018-07-19T04:45:59.928Z,10.10
2018-07-19T04:48:28.316Z,9.43
2018-07-19T04:50:56.705Z,9.77
2018-07-19T04:53:25.335Z,9.50
2018-07-19T04:55:53.737Z,10.07
2018-07-19T04:58:22.128Z,9.53
2018-07-19T05:00:50.524Z,9.47
2018-07-19T05:03:18.902Z,8.80
2018-07-19T05:05:47.316Z,9.07
2018-07-19T05:08:15.744Z,8.77
2018-07-19T05:10:44.129Z,8.57
2018-07-19T05:13:12.616Z,8.43
2018-07-19T05:15:41.048Z,8.50
2018-07-19T05:18:09.453Z,8.97
2018-07-19T05:20:37.873Z,8.43
2018-07-19T05:23:06.325Z,8.23
2018-07-19T05:25:34.725Z,8.83
2018-07-19T05:28:03.339Z,7.93
2018-07-19T05:30:31.844Z,8.87
2018-07-19T05:33:00.256Z,9.20
2018-07-19T05:35:28.779Z,9.40
2018-07-19T05:37:57.185Z,9.40
2018-07-19T05:40:25.627Z,8.53
2018-07-19T05:42:54.052Z,8.80
2018-07-19T05:45:22.444Z,8.70
2018-07-19T05:47:51.173Z,9.27
2018-07-19T05:50:19.603Z,8.60
2018-07-19T05:52:48.116Z,9.47
2018-07-19T05:55:16.550Z,9.00
2018-07-19T05:57:44.950Z,9.00
2018-07-19T06:00:13.572Z,9.73
2018-07-19T06:02:41.992Z,9.27
2018-07-19T06:05:10.459Z,9.00
2018-07-19T06:07:38.874Z,9.73
2018-07-19T06:10:07.339Z,8.40
2018-07-19T06:12:35.875Z,9.07
2018-07-19T06:15:04.705Z,8.60
2018-07-19T06:17:33.092Z,8.80
2018-07-19T06:20:01.508Z,10.20
2018-07-19T06:22:29.899Z,9.50
2018-07-19T06:24:58.308Z,8.40
2018-07-19T06:27:26.747Z,10.10
2018-07-19T06:29:55.176Z,9.30
2018-07-19T06:32:23.566Z,10.40
2018-07-19T06:34:51.974Z,8.67
2018-07-19T06:37:20.535Z,9.37
2018-07-19T06:39:49.012Z,10.00
2018-07-19T06:42:17.520Z,9.80
2018-07-19T06:44:45.924Z,10.80
2018-07-19T06:47:14.336Z,10.43
2018-07-19T06:49:43.492Z,11.10
2018-07-19T06:52:11.913Z,10.87
2018-07-19T06:54:41.045Z,11.20
2018-07-19T06:57:09.465Z,11.37
2018-07-19T06:59:37.908Z,11.90
2018-07-19T07:02:06.815Z,11.00
2018-07-19T07:04:35.232Z,11.23
2018-07-19T07:07:03.885Z,9.93
2018-07-19T07:09:32.301Z,10.03
2018-07-19T07:12:00.702Z,9.93
2018-07-19T07:14:29.116Z,10.10
2018-07-19T07:16:57.528Z,10.90
2018-07-19T07:19:25.952Z,10.50
2018-07-19T07:21:54.351Z,10.30
2018-07-19T07:24:22.787Z,10.10
2018-07-19T07:26:51.574Z,10.50
2018-07-19T07:29:20.052Z,10.73
2018-07-19T07:31:48.537Z,10.27
2018-07-19T07:34:16.988Z,11.13
2018-07-19T07:36:45.402Z,10.50
2018-07-19T07:39:13.797Z,10.80
2018-07-19T07:41:42.215Z,10.70
2018-07-19T07:44:10.686Z,10.43
2018-07-19T07:46:39.098Z,11.13
2018-07-19T07:49:07.501Z,10.60
2018-07-19T07:51:35.949Z,9.80
2018-07-19T07:54:04.479Z,10.17
2018-07-19T07:56:33.040Z,9.33
2018-07-19T07:59:01.483Z,10.87
2018-07-19T08:01:29.915Z,8.87
2018-07-19T08:03:58.299Z,10.20
2018-07-19T08:06:26.744Z,10.10
2018-07-19T08:08:55.306Z,9.80
2018-07-19T08:11:23.701Z,8.17
2018-07-19T08:13:52.136Z,8.93
2018-07-19T08:16:20.236Z,8.77
2018-07-19T08:18:48.661Z,9.20
2018-07-19T08:21:17.072Z,7.30
2018-07-19T08:23:45.544Z,6.20
2018-07-19T08:26:13.971Z,7.20
2018-07-19T08:28:42.365Z,7.57
2018-07-19T08:31:10.833Z,7.40
2018-07-19T08:33:39.289Z,8.00
2018-07-19T08:36:07.738Z,6.40
2018-07-19T08:38:36.114Z,6.97
2018-07-19T08:41:04.628Z,7.20
2018-07-19T08:43:33.048Z,7.50
2018-07-19T08:46:01.465Z,5.90
2018-07-19T08:48:29.863Z,5.43
2018-07-19T08:50:58.308Z,5.07
2018-07-19T08:53:26.785Z,6.50
2018-07-19T08:55:55.200Z,5.97
2018-07-19T08:58:23.658Z,5.13
2018-07-19T09:00:51.902Z,4.63
2018-07-19T09:03:21.232Z,5.50
2018-07-19T09:05:49.880Z,4.80
2018-07-19T09:08:18.323Z,5.40
2018-07-19T09:10:46.747Z,5.70
2018-07-19T09:13:15.147Z,5.50
2018-07-19T09:15:43.573Z,5.37
2018-07-19T09:18:11.963Z,4.83
2018-07-19T09:20:40.371Z,5.87
2018-07-19T09:23:08.832Z,4.73
2018-07-19T09:25:37.236Z,4.20
2018-07-19T09:28:05.824Z,4.37
2018-07-19T09:30:34.212Z,4.53
2018-07-19T09:33:02.657Z,4.57
2018-07-19T09:35:31.132Z,4.60
2018-07-19T09:37:59.748Z,5.67
2018-07-19T09:40:28.104Z,5.40
2018-07-19T09:42:56.499Z,4.90
2018-07-19T09:45:24.893Z,5.63
2018-07-19T09:47:53.266Z,5.97
2018-07-19T09:50:21.794Z,4.50
2018-07-19T09:52:50.193Z,4.70
2018-07-19T09:55:18.556Z,4.70
2018-07-19T09:57:46.937Z,4.67
2018-07-19T10:00:19.607Z,4.40
2018-07-19T10:02:48.034Z,4.60
2018-07-19T10:05:16.427Z,4.27
2018-07-19T10:07:44.983Z,4.10
2018-07-19T10:10:13.547Z,4.37
2018-07-19T10:12:41.881Z,4.83
2018-07-19T10:15:10.379Z,4.53
2018-07-19T10:17:38.774Z,4.97
2018-07-19T10:20:07.173Z,5.00
2018-07-19T10:22:35.564Z,4.97
2018-07-19T10:25:04.089Z,5.40
2018-07-19T10:27:32.528Z,5.70
2018-07-19T10:30:01.070Z,4.60
2018-07-19T10:32:29.553Z,6.10
2018-07-19T10:34:57.862Z,5.10
2018-07-19T10:37:26.297Z,5.10
2018-07-19T10:39:54.701Z,6.00
2018-07-19T10:42:23.737Z,5.30
2018-07-19T10:44:51.823Z,5.67
2018-07-19T10:47:20.458Z,5.10
2018-07-19T10:49:48.894Z,5.27
2018-07-19T10:52:17.276Z,5.70
2018-07-19T10:54:46.301Z,5.23
2018-07-19T10:57:14.716Z,5.10
2018-07-19T10:59:43.286Z,5.33
2018-07-19T11:02:11.681Z,5.30
2018-07-19T11:04:40.096Z,3.93
2018-07-19T11:07:08.612Z,4.60
2018-07-19T11:09:37.306Z,4.90
2018-07-19T11:12:05.748Z,4.00
2018-07-19T11:14:34.136Z,5.20
2018-07-19T11:17:02.557Z,5.00
2018-07-19T11:19:30.961Z,4.37
2018-07-19T11:21:59.341Z,4.27
2018-07-19T11:24:27.768Z,3.90
2018-07-19T11:26:56.191Z,4.30
2018-07-19T11:29:24.681Z,5.07
2018-07-19T11:31:53.069Z,4.20
2018-07-19T11:34:21.460Z,4.60
2018-07-19T11:37:10.431Z,4.17
2018-07-19T11:39:38.820Z,3.60
2018-07-19T11:42:07.268Z,3.87
2018-07-19T11:44:35.696Z,3.53
2018-07-19T11:47:04.156Z,4.33
2018-07-19T11:49:32.604Z,3.60
2018-07-19T11:52:01.024Z,4.23
2018-07-19T11:54:29.539Z,4.23
2018-07-19T11:56:57.946Z,3.70
2018-07-19T11:59:26.473Z,4.30
2018-07-19T12:01:54.841Z,4.70
2018-07-19T12:04:23.305Z,4.30
2018-07-19T12:06:51.951Z,3.87
2018-07-19T12:09:20.440Z,3.97
2018-07-19T12:11:48.855Z,4.23
2018-07-19T12:14:17.349Z,4.40
2018-07-19T12:16:45.798Z,4.20
2018-07-19T12:19:14.236Z,4.27
2018-07-19T12:21:42.708Z,4.13
2018-07-19T12:24:11.116Z,4.33
2018-07-19T12:26:39.674Z,4.20
2018-07-19T12:29:08.063Z,4.10
2018-07-19T12:31:36.419Z,4.27
2018-07-19T12:34:04.901Z,4.00
2018-07-19T12:36:33.329Z,4.80
2018-07-19T12:39:01.810Z,4.03
2018-07-19T12:41:30.504Z,4.03
2018-07-19T12:43:58.868Z,4.57
2018-07-19T12:46:27.236Z,4.03
2018-07-19T12:48:56.184Z,4.20
2018-07-19T12:51:24.589Z,3.90
2018-07-19T12:53:52.962Z,3.60
2018-07-19T12:56:21.697Z,3.87
2018-07-19T12:58:50.174Z,3.87
2018-07-19T13:01:18.602Z,3.93
2018-07-19T13:03:47.093Z,4.07
2018-07-19T13:06:15.581Z,4.37
2018-07-19T13:08:44.066Z,4.17
2018-07-19T13:11:13.263Z,4.20
2018-07-19T13:13:42.605Z,3.77
2018-07-19T13:16:11.836Z,4.10
2018-07-19T13:18:40.229Z,4.10
2018-07-19T13:21:08.627Z,4.37
2018-07-19T13:23:37.153Z,3.43
2018-07-19T13:26:05.715Z,4.30
2018-07-19T13:28:34.126Z,4.10
2018-07-19T13:31:02.709Z,4.20
2018-07-19T13:33:31.390Z,4.13
2018-07-19T13:36:00.145Z,3.83
2018-07-19T13:38:28.570Z,4.00
2018-07-19T13:40:57.240Z,4.40
2018-07-19T13:43:25.784Z,4.00
2018-07-19T13:45:54.267Z,3.47
2018-07-19T13:48:22.771Z,3.60
2018-07-19T13:50:51.242Z,3.90
2018-07-19T13:53:40.921Z,4.20
2018-07-19T13:56:09.927Z,4.30
2018-07-19T13:58:38.892Z,4.20
2018-07-19T14:01:08.429Z,4.20
2018-07-19T14:03:36.947Z,3.50
2018-07-19T14:06:05.647Z,4.07
2018-07-19T14:08:34.136Z,3.40
2018-07-19T14:11:02.630Z,4.13
2018-07-19T14:13:31.142Z,3.60
2018-07-19T14:15:59.563Z,3.90
2018-07-19T14:18:28.029Z,3.67
2018-07-19T14:20:56.461Z,3.80
2018-07-19T14:23:24.833Z,4.40
2018-07-19T14:25:53.609Z,4.17
2018-07-19T14:28:22.201Z,4.07
2018-07-19T14:30:50.769Z,3.93
2018-07-19T14:33:19.136Z,4.23
2018-07-19T14:35:47.633Z,3.53
2018-07-19T14:38:16.013Z,3.17
2018-07-19T14:40:44.416Z,3.83
2018-07-19T14:43:15.634Z,3.43
2018-07-19T14:45:44.003Z,3.60
2018-07-19T14:48:12.495Z,3.83
2018-07-19T14:50:40.941Z,4.07
2018-07-19T14:53:09.328Z,3.83
2018-07-19T14:55:37.718Z,3.70
2018-07-19T14:58:06.156Z,3.50
2018-07-19T15:00:34.652Z,3.63
2018-07-19T15:03:03.094Z,3.40
2018-07-19T15:05:31.548Z,3.40
2018-07-19T15:07:59.950Z,3.93
2018-07-19T15:10:28.352Z,3.57
2018-07-19T15:12:56.469Z,4.60
2018-07-19T15:15:24.907Z,3.53
2018-07-19T15:17:53.235Z,3.43
2018-07-19T15:20:21.745Z,3.63
2018-07-19T15:22:50.132Z,4.10
2018-07-19T15:25:18.494Z,4.07
2018-07-19T15:27:46.547Z,3.60
2018-07-19T15:30:15.148Z,4.40
2018-07-19T15:32:43.540Z,5.30
2018-07-19T15:35:11.916Z,3.97
2018-07-19T15:37:40.331Z,4.00
2018-07-19T15:40:08.721Z,4.50
2018-07-19T15:42:37.342Z,4.00
2018-07-19T15:45:06.933Z,5.00
2018-07-19T15:47:35.395Z,4.00
2018-07-19T15:50:04.018Z,3.87
2018-07-19T15:52:32.109Z,4.10
2018-07-19T15:55:00.720Z,3.20
2018-07-19T15:57:29.168Z,3.40
2018-07-19T15:59:57.288Z,3.43
2018-07-19T16:02:26.047Z,3.57
2018-07-19T16:04:54.416Z,3.40
2018-07-19T16:07:22.896Z,5.40
2018-07-19T16:09:51.436Z,3.40
2018-07-19T16:12:19.945Z,3.63
2018-07-19T16:14:48.379Z,3.90
2018-07-19T16:17:16.780Z,4.20
2018-07-19T16:19:45.184Z,3.27
2018-07-19T16:22:13.860Z,4.00
2018-07-19T16:24:41.951Z,3.93
2018-07-19T16:27:10.356Z,4.73
2018-07-19T16:29:38.741Z,3.70
2018-07-19T16:32:07.132Z,4.23
2018-07-19T16:34:35.729Z,3.80
2018-07-19T16:37:04.085Z,3.73
2018-07-19T16:39:32.556Z,4.10
2018-07-19T16:42:01.232Z,4.17
2018-07-19T16:44:29.656Z,3.90
2018-07-19T16:46:58.100Z,3.40
2018-07-19T16:49:26.601Z,4.00
2018-07-19T16:51:54.979Z,3.90
2018-07-19T16:54:23.617Z,3.50
2018-07-19T16:56:52.027Z,3.27
2018-07-19T16:59:20.492Z,3.70
2018-07-19T17:01:48.969Z,3.77
2018-07-19T17:04:17.378Z,3.87
2018-07-19T17:06:45.828Z,3.53
2018-07-19T17:09:14.585Z,4.20
2018-07-19T17:11:43.168Z,3.70
2018-07-19T17:14:11.612Z,3.50
2018-07-19T17:16:40.036Z,3.97
2018-07-19T17:19:08.468Z,3.77
2018-07-19T17:21:36.888Z,3.40
2018-07-19T17:24:05.467Z,4.50
2018-07-19T17:26:34.537Z,3.80
2018-07-19T17:29:02.947Z,3.53
2018-07-19T17:31:31.376Z,3.80
2018-07-19T17:33:59.835Z,3.97
2018-07-19T17:36:28.246Z,4.00
2018-07-19T17:38:56.682Z,4.60
2018-07-19T17:41:25.109Z,4.00
2018-07-19T17:43:53.575Z,3.90
2018-07-19T17:46:22.066Z,4.30
2018-07-19T17:48:50.595Z,3.40
2018-07-19T17:51:19.161Z,3.77
2018-07-19T17:53:47.581Z,3.77
2018-07-19T17:56:16.036Z,4.77
2018-07-19T17:58:44.685Z,4.17
2018-07-19T18:01:12.825Z,3.50
2018-07-19T18:03:41.384Z,4.73
2018-07-19T18:06:10.013Z,3.97
2018-07-19T18:08:38.453Z,3.80
2018-07-19T18:11:07.449Z,4.27
2018-07-19T18:13:35.867Z,4.73
2018-07-19T18:16:04.349Z,4.87
2018-07-19T18:18:33.033Z,5.00
2018-07-19T18:21:01.510Z,4.40
2018-07-19T18:23:30.647Z,4.30
2018-07-19T18:26:00.349Z,4.70
2018-07-19T18:28:28.743Z,4.10
2018-07-19T18:30:57.266Z,4.80
2018-07-19T18:33:25.668Z,4.40
2018-07-19T18:35:54.912Z,4.80
2018-07-19T18:38:23.404Z,5.17
2018-07-19T18:40:51.823Z,4.97
2018-07-19T18:43:20.557Z,5.33
2018-07-19T18:45:48.974Z,5.00
2018-07-19T18:48:17.392Z,5.13
2018-07-19T18:50:45.982Z,5.70
2018-07-19T18:53:14.605Z,6.10
2018-07-19T18:55:43.105Z,5.77
2018-07-19T18:58:11.518Z,5.40
2018-07-19T19:00:40.006Z,5.87
2018-07-19T19:03:09.044Z,5.97
2018-07-19T19:05:37.524Z,5.77
2018-07-19T19:08:06.289Z,5.83
2018-07-19T19:10:34.824Z,5.90
2018-07-19T19:13:03.287Z,5.80
2018-07-19T19:15:31.718Z,5.53
2018-07-19T19:18:00.382Z,5.00
2018-07-19T19:20:28.812Z,5.10
2018-07-19T19:22:57.262Z,6.00
2018-07-19T19:25:25.765Z,5.70
2018-07-19T19:27:54.234Z,5.27
2018-07-19T19:30:22.744Z,5.80
2018-07-19T19:32:50.881Z,5.20
2018-07-19T19:35:19.495Z,5.50
2018-07-19T19:37:48.700Z,6.40
2018-07-19T19:40:17.193Z,5.63
2018-07-19T19:42:45.695Z,5.17
2018-07-19T19:45:14.150Z,6.10
2018-07-19T19:47:42.249Z,5.80
2018-07-19T19:50:10.701Z,6.43
2018-07-19T19:52:39.140Z,6.17
2018-07-19T19:55:07.693Z,5.80
2018-07-19T19:57:36.165Z,5.20
2018-07-19T20:00:05.197Z,6.20
2018-07-19T20:02:33.665Z,6.50
2018-07-19T20:05:02.111Z,5.53
2018-07-19T20:07:30.561Z,6.87
2018-07-19T20:09:58.977Z,5.90
2018-07-19T20:12:27.568Z,5.63
2018-07-19T20:14:56.080Z,6.23
2018-07-19T20:17:24.530Z,5.60
2018-07-19T20:19:52.968Z,5.23
2018-07-19T20:22:21.408Z,5.00
2018-07-19T20:24:49.868Z,5.63
2018-07-19T20:27:18.530Z,5.63
2018-07-19T20:29:46.960Z,5.50
2018-07-19T20:32:15.501Z,4.77
2018-07-19T20:34:43.978Z,4.87
2018-07-19T20:37:12.476Z,5.10
2018-07-19T20:39:40.953Z,4.80
2018-07-19T20:42:09.741Z,4.50
2018-07-19T20:44:38.176Z,5.23
2018-07-19T20:47:06.768Z,4.90
2018-07-19T20:49:35.443Z,5.10
2018-07-19T20:52:03.922Z,4.47
2018-07-19T20:54:32.421Z,4.53
2018-07-19T20:57:00.844Z,4.90
2018-07-19T20:59:29.557Z,5.13
2018-07-19T21:01:57.945Z,5.10
2018-07-19T21:04:26.396Z,4.87
2018-07-19T21:06:54.892Z,4.27
2018-07-19T21:09:23.330Z,4.43
2018-07-19T21:11:51.956Z,4.20
2018-07-19T21:14:20.469Z,3.67
2018-07-19T21:16:48.553Z,4.00
2018-07-19T21:19:16.976Z,4.37
2018-07-19T21:21:45.375Z,4.20
2018-07-19T21:24:13.820Z,4.87
2018-07-19T21:26:42.229Z,3.77
2018-07-19T21:29:10.718Z,4.40
2018-07-19T21:31:39.141Z,4.00
2018-07-19T21:34:07.702Z,3.77
2018-07-19T21:36:36.198Z,3.50
2018-07-19T21:39:07.650Z,3.80
2018-07-19T21:41:36.040Z,3.80
2018-07-19T21:44:04.558Z,3.70
2018-07-19T21:46:33.250Z,4.33
2018-07-19T21:49:01.791Z,4.10
2018-07-19T21:51:30.224Z,3.90
2018-07-19T21:53:58.975Z,3.60
2018-07-19T21:56:27.413Z,3.90
2018-07-19T21:58:55.833Z,4.43
2018-07-19T22:01:24.333Z,3.80
2018-07-19T22:03:52.946Z,4.43
2018-07-19T22:06:21.488Z,4.10
2018-07-19T22:08:49.904Z,3.40
2018-07-19T22:11:18.332Z,3.73
2018-07-19T22:13:46.720Z,4.00
2018-07-19T22:16:15.146Z,3.80
2018-07-19T22:18:43.578Z,4.13
2018-07-19T22:21:12.161Z,4.30
2018-07-19T22:23:40.660Z,3.87
2018-07-19T22:26:09.064Z,3.20
2018-07-19T22:28:37.638Z,3.53
2018-07-19T22:31:06.505Z,4.20
2018-07-19T22:33:34.905Z,3.73
2018-07-19T22:36:03.345Z,3.00
2018-07-19T22:38:31.945Z,3.43
2018-07-19T22:41:00.365Z,3.43
2018-07-19T22:43:28.733Z,3.47
2018-07-19T22:45:57.163Z,3.43
2018-07-19T22:48:25.713Z,3.40
2018-07-19T22:50:54.133Z,3.80
2018-07-19T22:53:22.581Z,3.83
2018-07-19T22:55:51.145Z,3.83
2018-07-19T22:58:19.557Z,3.63
2018-07-19T23:00:48.264Z,3.50
2018-07-19T23:03:16.949Z,3.50
2018-07-19T23:05:45.353Z,3.40
2018-07-19T23:08:13.856Z,3.63
2018-07-19T23:10:42.354Z,3.63
2018-07-19T23:13:11.390Z,4.10
2018-07-19T23:15:39.866Z,3.80
2018-07-19T23:18:08.247Z,4.13
2018-07-19T23:20:36.659Z,3.93
2018-07-19T23:23:05.180Z,3.80
2018-07-19T23:25:33.589Z,3.50
2018-07-19T23:28:02.020Z,4.43
2018-07-19T23:30:33.040Z,3.80
2018-07-19T23:33:01.482Z,3.93
2018-07-19T23:35:35.472Z,3.90
2018-07-19T23:38:06.901Z,3.80
2018-07-19T23:40:38.288Z,4.27
2018-07-19T23:43:11.192Z,4.00
2018-07-19T23:46:46.076Z,4.07
2018-07-19T23:49:14.563Z,4.43
2018-07-19T23:51:42.988Z,4.30
2018-07-19T23:54:11.377Z,4.20
2018-07-19T23:56:39.779Z,4.10
2018-07-19T23:59:08.289Z,3.77
